sensor_id;sensor_type;location;lat;lon;timestamp;P1;durP1;ratioP1;P2;durP2;ratioP2
37545;SDS011;23389;52.484;13.572;2023-03-09T00:00:35;27.63;;;15.43;;
37545;SDS011;23389;52.484;13.572;2023-03-09T00:03:01;28.27;;;15.40;;
37545;SDS011;23389;52.484;13.572;2023-03-09T00:05:26;27.80;;;16.92;;
37545;SDS011;23389;52.484;13.572;2023-03-09T00:07:52;28.52;;;15.45;;
37545;SDS011;23389;52.484;13.572;2023-03-09T00:10:17;28.48;;;15.80;;
37545;SDS011;23389;52.484;13.572;2023-03-09T00:12:42;28.27;;;16.30;;
37545;SDS011;23389;52.484;13.572;2023-03-09T00:15:08;25.33;;;16.07;;
37545;SDS011;23389;52.484;13.572;2023-03-09T00:17:34;29.85;;;16.85;;
37545;SDS011;23389;52.484;13.572;2023-03-09T00:19:59;28.95;;;16.52;;
37545;SDS011;23389;52.484;13.572;2023-03-09T00:22:43;28.10;;;16.38;;
37545;SDS011;23389;52.484;13.572;2023-03-09T00:25:11;28.48;;;16.25;;
37545;SDS011;23389;52.484;13.572;2023-03-09T00:27:38;29.10;;;16.20;;
37545;SDS011;23389;52.484;13.572;2023-03-09T00:30:03;27.55;;;15.93;;
37545;SDS011;23389;52.484;13.572;2023-03-09T00:32:29;29.17;;;16.80;;
37545;SDS011;23389;52.484;13.572;2023-03-09T00:34:54;30.83;;;17.40;;
37545;SDS011;23389;52.484;13.572;2023-03-09T00:37:19;29.98;;;17.25;;
37545;SDS011;23389;52.484;13.572;2023-03-09T00:39:46;26.85;;;16.42;;
37545;SDS011;23389;52.484;13.572;2023-03-09T00:42:11;28.92;;;16.77;;
37545;SDS011;23389;52.484;13.572;2023-03-09T00:44:36;29.50;;;16.95;;
37545;SDS011;23389;52.484;13.572;2023-03-09T00:47:01;30.42;;;17.30;;
37545;SDS011;23389;52.484;13.572;2023-03-09T00:49:26;28.97;;;17.47;;
37545;SDS011;23389;52.484;13.572;2023-03-09T00:51:52;28.77;;;16.83;;
37545;SDS011;23389;52.484;13.572;2023-03-09T00:54:17;30.38;;;18.13;;
37545;SDS011;23389;52.484;13.572;2023-03-09T00:56:42;28.17;;;16.95;;
37545;SDS011;23389;52.484;13.572;2023-03-09T00:59:07;30.50;;;17.85;;
37545;SDS011;23389;52.484;13.572;2023-03-09T01:01:33;26.63;;;16.88;;
37545;SDS011;23389;52.484;13.572;2023-03-09T01:03:58;32.05;;;16.92;;
37545;SDS011;23389;52.484;13.572;2023-03-09T01:06:23;28.50;;;16.85;;
37545;SDS011;23389;52.484;13.572;2023-03-09T01:08:49;30.08;;;17.30;;
37545;SDS011;23389;52.484;13.572;2023-03-09T01:11:15;25.92;;;16.83;;
37545;SDS011;23389;52.484;13.572;2023-03-09T01:13:40;28.15;;;17.15;;
37545;SDS011;23389;52.484;13.572;2023-03-09T01:16:06;31.30;;;16.95;;
37545;SDS011;23389;52.484;13.572;2023-03-09T01:18:31;27.17;;;16.75;;
37545;SDS011;23389;52.484;13.572;2023-03-09T01:20:56;25.83;;;15.13;;
37545;SDS011;23389;52.484;13.572;2023-03-09T01:23:21;28.77;;;16.67;;
37545;SDS011;23389;52.484;13.572;2023-03-09T01:25:47;29.17;;;16.23;;
37545;SDS011;23389;52.484;13.572;2023-03-09T01:28:12;29.57;;;17.03;;
37545;SDS011;23389;52.484;13.572;2023-03-09T01:30:37;29.38;;;17.52;;
37545;SDS011;23389;52.484;13.572;2023-03-09T01:33:03;28.05;;;16.92;;
37545;SDS011;23389;52.484;13.572;2023-03-09T01:35:28;31.48;;;17.65;;
37545;SDS011;23389;52.484;13.572;2023-03-09T01:37:53;30.83;;;17.67;;
37545;SDS011;23389;52.484;13.572;2023-03-09T01:40:19;30.60;;;17.52;;
37545;SDS011;23389;52.484;13.572;2023-03-09T01:42:52;30.45;;;18.30;;
37545;SDS011;23389;52.484;13.572;2023-03-09T01:47:43;32.15;;;19.40;;
37545;SDS011;23389;52.484;13.572;2023-03-09T01:50:08;28.65;;;15.73;;
37545;SDS011;23389;52.484;13.572;2023-03-09T01:52:34;29.63;;;18.05;;
37545;SDS011;23389;52.484;13.572;2023-03-09T01:55:04;31.88;;;18.63;;
37545;SDS011;23389;52.484;13.572;2023-03-09T01:57:34;30.25;;;17.80;;
37545;SDS011;23389;52.484;13.572;2023-03-09T02:00:17;33.28;;;19.13;;
37545;SDS011;23389;52.484;13.572;2023-03-09T02:02:44;30.30;;;17.38;;
37545;SDS011;23389;52.484;13.572;2023-03-09T02:05:14;32.03;;;18.65;;
37545;SDS011;23389;52.484;13.572;2023-03-09T02:07:44;35.17;;;18.52;;
37545;SDS011;23389;52.484;13.572;2023-03-09T02:12:42;33.28;;;19.05;;
37545;SDS011;23389;52.484;13.572;2023-03-09T02:15:12;32.40;;;19.00;;
37545;SDS011;23389;52.484;13.572;2023-03-09T02:17:37;31.25;;;18.42;;
37545;SDS011;23389;52.484;13.572;2023-03-09T02:20:17;34.70;;;19.13;;
37545;SDS011;23389;52.484;13.572;2023-03-09T02:22:45;33.45;;;18.95;;
37545;SDS011;23389;52.484;13.572;2023-03-09T02:25:16;34.95;;;19.63;;
37545;SDS011;23389;52.484;13.572;2023-03-09T02:27:42;36.25;;;19.67;;
37545;SDS011;23389;52.484;13.572;2023-03-09T02:30:08;33.00;;;19.23;;
37545;SDS011;23389;52.484;13.572;2023-03-09T02:32:33;35.25;;;19.48;;
37545;SDS011;23389;52.484;13.572;2023-03-09T02:34:58;34.50;;;19.83;;
37545;SDS011;23389;52.484;13.572;2023-03-09T02:37:30;37.03;;;19.83;;
37545;SDS011;23389;52.484;13.572;2023-03-09T02:39:59;36.85;;;20.10;;
37545;SDS011;23389;52.484;13.572;2023-03-09T02:42:24;38.30;;;20.67;;
37545;SDS011;23389;52.484;13.572;2023-03-09T02:44:50;38.25;;;21.27;;
37545;SDS011;23389;52.484;13.572;2023-03-09T02:47:19;39.23;;;20.97;;
37545;SDS011;23389;52.484;13.572;2023-03-09T02:49:45;34.97;;;20.20;;
37545;SDS011;23389;52.484;13.572;2023-03-09T02:52:10;37.28;;;20.42;;
37545;SDS011;23389;52.484;13.572;2023-03-09T02:54:35;38.40;;;20.75;;
37545;SDS011;23389;52.484;13.572;2023-03-09T02:57:00;34.95;;;19.25;;
37545;SDS011;23389;52.484;13.572;2023-03-09T02:59:25;36.13;;;20.97;;
37545;SDS011;23389;52.484;13.572;2023-03-09T03:01:50;37.25;;;19.95;;
37545;SDS011;23389;52.484;13.572;2023-03-09T03:04:15;34.40;;;19.30;;
37545;SDS011;23389;52.484;13.572;2023-03-09T03:06:40;37.95;;;20.40;;
37545;SDS011;23389;52.484;13.572;2023-03-09T03:09:06;35.70;;;19.55;;
37545;SDS011;23389;52.484;13.572;2023-03-09T03:11:31;33.85;;;18.33;;
37545;SDS011;23389;52.484;13.572;2023-03-09T03:13:56;34.75;;;18.92;;
37545;SDS011;23389;52.484;13.572;2023-03-09T03:16:21;33.03;;;18.40;;
37545;SDS011;23389;52.484;13.572;2023-03-09T03:18:46;33.27;;;19.00;;
37545;SDS011;23389;52.484;13.572;2023-03-09T03:21:11;32.85;;;18.38;;
37545;SDS011;23389;52.484;13.572;2023-03-09T03:23:37;35.85;;;18.88;;
37545;SDS011;23389;52.484;13.572;2023-03-09T03:26:05;32.20;;;17.45;;
37545;SDS011;23389;52.484;13.572;2023-03-09T03:28:31;30.90;;;17.35;;
37545;SDS011;23389;52.484;13.572;2023-03-09T03:30:56;30.80;;;16.70;;
37545;SDS011;23389;52.484;13.572;2023-03-09T03:33:21;31.98;;;17.10;;
37545;SDS011;23389;52.484;13.572;2023-03-09T03:35:46;33.73;;;18.23;;
37545;SDS011;23389;52.484;13.572;2023-03-09T03:38:11;29.07;;;16.40;;
37545;SDS011;23389;52.484;13.572;2023-03-09T03:40:36;30.00;;;16.33;;
37545;SDS011;23389;52.484;13.572;2023-03-09T03:43:01;30.45;;;16.80;;
37545;SDS011;23389;52.484;13.572;2023-03-09T03:45:27;31.48;;;16.90;;
37545;SDS011;23389;52.484;13.572;2023-03-09T03:47:52;32.78;;;17.13;;
37545;SDS011;23389;52.484;13.572;2023-03-09T03:50:17;29.73;;;16.20;;
37545;SDS011;23389;52.484;13.572;2023-03-09T03:52:42;31.63;;;17.60;;
37545;SDS011;23389;52.484;13.572;2023-03-09T03:55:07;32.30;;;17.60;;
37545;SDS011;23389;52.484;13.572;2023-03-09T03:57:32;34.78;;;18.88;;
37545;SDS011;23389;52.484;13.572;2023-03-09T03:59:57;34.95;;;18.35;;
37545;SDS011;23389;52.484;13.572;2023-03-09T04:02:23;32.80;;;18.10;;
37545;SDS011;23389;52.484;13.572;2023-03-09T04:04:48;32.13;;;17.92;;
37545;SDS011;23389;52.484;13.572;2023-03-09T04:07:13;31.70;;;18.00;;
37545;SDS011;23389;52.484;13.572;2023-03-09T04:09:38;31.75;;;17.63;;
37545;SDS011;23389;52.484;13.572;2023-03-09T04:12:03;30.67;;;17.80;;
37545;SDS011;23389;52.484;13.572;2023-03-09T04:14:31;31.70;;;18.25;;
37545;SDS011;23389;52.484;13.572;2023-03-09T04:16:57;32.97;;;19.05;;
37545;SDS011;23389;52.484;13.572;2023-03-09T04:19:22;35.30;;;19.63;;
37545;SDS011;23389;52.484;13.572;2023-03-09T04:21:47;33.17;;;18.17;;
37545;SDS011;23389;52.484;13.572;2023-03-09T04:24:12;34.75;;;19.38;;
37545;SDS011;23389;52.484;13.572;2023-03-09T04:26:37;34.20;;;19.63;;
37545;SDS011;23389;52.484;13.572;2023-03-09T04:29:02;33.95;;;19.08;;
37545;SDS011;23389;52.484;13.572;2023-03-09T04:31:27;32.78;;;18.42;;
37545;SDS011;23389;52.484;13.572;2023-03-09T04:33:53;34.87;;;19.43;;
37545;SDS011;23389;52.484;13.572;2023-03-09T04:36:18;35.13;;;20.17;;
37545;SDS011;23389;52.484;13.572;2023-03-09T04:38:43;33.58;;;20.05;;
37545;SDS011;23389;52.484;13.572;2023-03-09T04:41:10;35.85;;;20.58;;
37545;SDS011;23389;52.484;13.572;2023-03-09T04:43:35;35.55;;;21.40;;
37545;SDS011;23389;52.484;13.572;2023-03-09T04:46:00;35.10;;;19.92;;
37545;SDS011;23389;52.484;13.572;2023-03-09T04:48:25;35.38;;;21.25;;
37545;SDS011;23389;52.484;13.572;2023-03-09T04:50:51;36.72;;;21.30;;
37545;SDS011;23389;52.484;13.572;2023-03-09T04:53:16;34.58;;;20.80;;
37545;SDS011;23389;52.484;13.572;2023-03-09T04:55:41;37.53;;;20.85;;
37545;SDS011;23389;52.484;13.572;2023-03-09T04:58:06;33.70;;;20.50;;
37545;SDS011;23389;52.484;13.572;2023-03-09T05:00:31;37.13;;;20.95;;
37545;SDS011;23389;52.484;13.572;2023-03-09T05:02:57;34.60;;;20.30;;
37545;SDS011;23389;52.484;13.572;2023-03-09T05:05:23;36.80;;;21.55;;
37545;SDS011;23389;52.484;13.572;2023-03-09T05:07:48;37.30;;;22.08;;
37545;SDS011;23389;52.484;13.572;2023-03-09T05:10:13;38.00;;;23.35;;
37545;SDS011;23389;52.484;13.572;2023-03-09T05:12:38;37.63;;;22.08;;
37545;SDS011;23389;52.484;13.572;2023-03-09T05:15:04;36.67;;;22.20;;
37545;SDS011;23389;52.484;13.572;2023-03-09T05:17:29;37.50;;;22.15;;
37545;SDS011;23389;52.484;13.572;2023-03-09T05:19:55;37.10;;;22.35;;
37545;SDS011;23389;52.484;13.572;2023-03-09T05:22:20;39.47;;;22.80;;
37545;SDS011;23389;52.484;13.572;2023-03-09T05:24:45;37.30;;;22.10;;
37545;SDS011;23389;52.484;13.572;2023-03-09T05:27:10;37.10;;;22.33;;
37545;SDS011;23389;52.484;13.572;2023-03-09T05:29:37;38.75;;;23.13;;
37545;SDS011;23389;52.484;13.572;2023-03-09T05:32:02;36.25;;;21.35;;
37545;SDS011;23389;52.484;13.572;2023-03-09T05:34:27;37.13;;;22.90;;
37545;SDS011;23389;52.484;13.572;2023-03-09T05:36:53;40.40;;;23.50;;
37545;SDS011;23389;52.484;13.572;2023-03-09T05:39:18;36.80;;;21.55;;
37545;SDS011;23389;52.484;13.572;2023-03-09T05:41:43;37.65;;;23.70;;
37545;SDS011;23389;52.484;13.572;2023-03-09T05:44:09;36.17;;;23.05;;
37545;SDS011;23389;52.484;13.572;2023-03-09T05:46:35;39.45;;;23.27;;
37545;SDS011;23389;52.484;13.572;2023-03-09T05:49:00;38.92;;;22.95;;
37545;SDS011;23389;52.484;13.572;2023-03-09T05:51:25;39.13;;;23.40;;
37545;SDS011;23389;52.484;13.572;2023-03-09T05:53:50;40.00;;;22.40;;
37545;SDS011;23389;52.484;13.572;2023-03-09T05:56:15;38.37;;;22.97;;
37545;SDS011;23389;52.484;13.572;2023-03-09T05:58:40;36.95;;;22.65;;
37545;SDS011;23389;52.484;13.572;2023-03-09T06:01:14;38.60;;;22.40;;
37545;SDS011;23389;52.484;13.572;2023-03-09T06:03:40;38.45;;;23.58;;
37545;SDS011;23389;52.484;13.572;2023-03-09T06:06:05;37.10;;;22.35;;
37545;SDS011;23389;52.484;13.572;2023-03-09T06:08:31;36.30;;;21.65;;
37545;SDS011;23389;52.484;13.572;2023-03-09T06:10:57;36.38;;;21.38;;
37545;SDS011;23389;52.484;13.572;2023-03-09T06:13:22;38.03;;;23.98;;
37545;SDS011;23389;52.484;13.572;2023-03-09T06:15:47;41.23;;;24.03;;
37545;SDS011;23389;52.484;13.572;2023-03-09T06:18:12;37.53;;;22.00;;
37545;SDS011;23389;52.484;13.572;2023-03-09T06:20:38;40.40;;;23.67;;
37545;SDS011;23389;52.484;13.572;2023-03-09T06:23:03;40.80;;;23.95;;
37545;SDS011;23389;52.484;13.572;2023-03-09T06:25:28;38.47;;;22.75;;
37545;SDS011;23389;52.484;13.572;2023-03-09T06:27:53;37.55;;;22.63;;
37545;SDS011;23389;52.484;13.572;2023-03-09T06:30:19;36.45;;;23.00;;
37545;SDS011;23389;52.484;13.572;2023-03-09T06:32:46;39.45;;;23.42;;
37545;SDS011;23389;52.484;13.572;2023-03-09T06:35:12;34.75;;;22.23;;
37545;SDS011;23389;52.484;13.572;2023-03-09T06:37:37;35.65;;;22.05;;
37545;SDS011;23389;52.484;13.572;2023-03-09T06:40:02;33.80;;;21.20;;
37545;SDS011;23389;52.484;13.572;2023-03-09T06:42:29;34.83;;;20.90;;
37545;SDS011;23389;52.484;13.572;2023-03-09T06:44:55;33.70;;;20.45;;
37545;SDS011;23389;52.484;13.572;2023-03-09T06:47:20;34.07;;;21.43;;
37545;SDS011;23389;52.484;13.572;2023-03-09T06:49:45;32.92;;;20.73;;
37545;SDS011;23389;52.484;13.572;2023-03-09T06:52:10;28.90;;;19.00;;
37545;SDS011;23389;52.484;13.572;2023-03-09T06:54:35;30.27;;;19.07;;
37545;SDS011;23389;52.484;13.572;2023-03-09T06:57:00;31.20;;;19.67;;
37545;SDS011;23389;52.484;13.572;2023-03-09T06:59:28;29.53;;;20.00;;
37545;SDS011;23389;52.484;13.572;2023-03-09T07:01:53;28.15;;;19.00;;
37545;SDS011;23389;52.484;13.572;2023-03-09T07:04:18;29.65;;;19.33;;
37545;SDS011;23389;52.484;13.572;2023-03-09T07:06:43;28.90;;;18.43;;
37545;SDS011;23389;52.484;13.572;2023-03-09T07:09:08;31.37;;;19.20;;
37545;SDS011;23389;52.484;13.572;2023-03-09T07:11:34;26.48;;;18.13;;
37545;SDS011;23389;52.484;13.572;2023-03-09T07:13:59;27.92;;;17.48;;
37545;SDS011;23389;52.484;13.572;2023-03-09T07:16:24;28.70;;;17.88;;
37545;SDS011;23389;52.484;13.572;2023-03-09T07:18:50;25.77;;;17.17;;
37545;SDS011;23389;52.484;13.572;2023-03-09T07:21:15;23.85;;;15.95;;
37545;SDS011;23389;52.484;13.572;2023-03-09T07:23:41;25.13;;;16.33;;
37545;SDS011;23389;52.484;13.572;2023-03-09T07:26:06;23.65;;;15.90;;
37545;SDS011;23389;52.484;13.572;2023-03-09T07:28:32;22.95;;;15.73;;
37545;SDS011;23389;52.484;13.572;2023-03-09T07:30:57;24.30;;;16.03;;
37545;SDS011;23389;52.484;13.572;2023-03-09T07:33:23;25.27;;;17.70;;
37545;SDS011;23389;52.484;13.572;2023-03-09T07:35:48;26.80;;;16.17;;
37545;SDS011;23389;52.484;13.572;2023-03-09T07:38:13;22.83;;;15.40;;
37545;SDS011;23389;52.484;13.572;2023-03-09T07:40:39;25.33;;;16.08;;
37545;SDS011;23389;52.484;13.572;2023-03-09T07:43:04;23.30;;;15.90;;
37545;SDS011;23389;52.484;13.572;2023-03-09T07:45:29;23.80;;;15.45;;
37545;SDS011;23389;52.484;13.572;2023-03-09T07:47:54;23.85;;;16.08;;
37545;SDS011;23389;52.484;13.572;2023-03-09T07:50:20;23.05;;;15.20;;
37545;SDS011;23389;52.484;13.572;2023-03-09T07:52:45;24.65;;;15.80;;
37545;SDS011;23389;52.484;13.572;2023-03-09T07:55:11;21.08;;;14.75;;
37545;SDS011;23389;52.484;13.572;2023-03-09T07:57:36;21.45;;;15.15;;
37545;SDS011;23389;52.484;13.572;2023-03-09T08:00:02;22.00;;;15.15;;
37545;SDS011;23389;52.484;13.572;2023-03-09T08:02:31;21.63;;;15.60;;
37545;SDS011;23389;52.484;13.572;2023-03-09T08:04:56;22.60;;;15.15;;
37545;SDS011;23389;52.484;13.572;2023-03-09T08:07:21;22.80;;;15.73;;
37545;SDS011;23389;52.484;13.572;2023-03-09T08:09:46;23.75;;;16.35;;
37545;SDS011;23389;52.484;13.572;2023-03-09T08:12:12;21.80;;;15.37;;
37545;SDS011;23389;52.484;13.572;2023-03-09T08:14:37;23.53;;;16.13;;
37545;SDS011;23389;52.484;13.572;2023-03-09T08:17:02;23.13;;;15.75;;
37545;SDS011;23389;52.484;13.572;2023-03-09T08:19:28;20.25;;;15.63;;
37545;SDS011;23389;52.484;13.572;2023-03-09T08:21:54;23.85;;;16.27;;
37545;SDS011;23389;52.484;13.572;2023-03-09T08:24:19;21.57;;;15.67;;
37545;SDS011;23389;52.484;13.572;2023-03-09T08:26:44;23.50;;;15.98;;
37545;SDS011;23389;52.484;13.572;2023-03-09T08:29:09;22.60;;;15.60;;
37545;SDS011;23389;52.484;13.572;2023-03-09T08:31:35;22.98;;;15.73;;
37545;SDS011;23389;52.484;13.572;2023-03-09T08:34:00;24.75;;;17.13;;
37545;SDS011;23389;52.484;13.572;2023-03-09T08:36:26;25.38;;;17.02;;
37545;SDS011;23389;52.484;13.572;2023-03-09T08:38:51;24.80;;;17.67;;
37545;SDS011;23389;52.484;13.572;2023-03-09T08:41:16;25.58;;;17.90;;
37545;SDS011;23389;52.484;13.572;2023-03-09T08:43:42;26.65;;;17.00;;
37545;SDS011;23389;52.484;13.572;2023-03-09T08:46:07;26.88;;;17.38;;
37545;SDS011;23389;52.484;13.572;2023-03-09T08:48:32;27.45;;;17.75;;
37545;SDS011;23389;52.484;13.572;2023-03-09T08:51:01;25.95;;;18.65;;
37545;SDS011;23389;52.484;13.572;2023-03-09T08:53:26;26.15;;;18.50;;
37545;SDS011;23389;52.484;13.572;2023-03-09T08:55:51;27.27;;;18.13;;
37545;SDS011;23389;52.484;13.572;2023-03-09T08:58:16;27.23;;;17.63;;
37545;SDS011;23389;52.484;13.572;2023-03-09T09:00:41;27.40;;;18.80;;
37545;SDS011;23389;52.484;13.572;2023-03-09T09:03:07;29.10;;;19.17;;
37545;SDS011;23389;52.484;13.572;2023-03-09T09:05:33;29.20;;;19.27;;
37545;SDS011;23389;52.484;13.572;2023-03-09T09:07:58;26.27;;;18.90;;
37545;SDS011;23389;52.484;13.572;2023-03-09T09:10:23;27.95;;;19.83;;
37545;SDS011;23389;52.484;13.572;2023-03-09T09:12:48;28.38;;;19.63;;
37545;SDS011;23389;52.484;13.572;2023-03-09T09:15:14;27.92;;;19.58;;
37545;SDS011;23389;52.484;13.572;2023-03-09T09:17:40;27.55;;;19.42;;
37545;SDS011;23389;52.484;13.572;2023-03-09T09:20:06;28.95;;;19.63;;
37545;SDS011;23389;52.484;13.572;2023-03-09T09:22:32;30.67;;;20.25;;
37545;SDS011;23389;52.484;13.572;2023-03-09T09:24:57;29.77;;;19.50;;
37545;SDS011;23389;52.484;13.572;2023-03-09T09:27:22;28.48;;;19.42;;
37545;SDS011;23389;52.484;13.572;2023-03-09T09:29:47;27.33;;;19.67;;
37545;SDS011;23389;52.484;13.572;2023-03-09T09:32:13;29.85;;;19.67;;
37545;SDS011;23389;52.484;13.572;2023-03-09T09:34:38;26.47;;;19.90;;
37545;SDS011;23389;52.484;13.572;2023-03-09T09:37:04;28.17;;;20.20;;
37545;SDS011;23389;52.484;13.572;2023-03-09T09:39:30;29.38;;;20.70;;
37545;SDS011;23389;52.484;13.572;2023-03-09T09:41:58;29.15;;;20.30;;
37545;SDS011;23389;52.484;13.572;2023-03-09T09:44:27;28.90;;;20.13;;
37545;SDS011;23389;52.484;13.572;2023-03-09T09:46:53;29.45;;;19.80;;
37545;SDS011;23389;52.484;13.572;2023-03-09T09:49:21;29.30;;;20.40;;
37545;SDS011;23389;52.484;13.572;2023-03-09T09:51:55;28.08;;;19.48;;
37545;SDS011;23389;52.484;13.572;2023-03-09T09:57:03;29.10;;;19.63;;
37545;SDS011;23389;52.484;13.572;2023-03-09T09:59:30;28.20;;;19.65;;
37545;SDS011;23389;52.484;13.572;2023-03-09T10:02:01;31.73;;;20.52;;
37545;SDS011;23389;52.484;13.572;2023-03-09T10:04:28;28.02;;;19.50;;
37545;SDS011;23389;52.484;13.572;2023-03-09T10:06:57;28.42;;;19.88;;
37545;SDS011;23389;52.484;13.572;2023-03-09T10:09:24;29.58;;;20.40;;
37545;SDS011;23389;52.484;13.572;2023-03-09T10:11:51;28.70;;;19.50;;
37545;SDS011;23389;52.484;13.572;2023-03-09T10:14:26;26.55;;;18.95;;
37545;SDS011;23389;52.484;13.572;2023-03-09T10:17:00;29.15;;;19.40;;
37545;SDS011;23389;52.484;13.572;2023-03-09T10:19:33;27.95;;;20.23;;
37545;SDS011;23389;52.484;13.572;2023-03-09T10:21:59;30.48;;;20.85;;
37545;SDS011;23389;52.484;13.572;2023-03-09T10:29:20;29.90;;;19.83;;
37545;SDS011;23389;52.484;13.572;2023-03-09T10:31:50;30.48;;;19.52;;
37545;SDS011;23389;52.484;13.572;2023-03-09T10:34:18;29.05;;;20.45;;
37545;SDS011;23389;52.484;13.572;2023-03-09T10:36:48;25.52;;;19.15;;
37545;SDS011;23389;52.484;13.572;2023-03-09T10:39:17;27.55;;;20.10;;
37545;SDS011;23389;52.484;13.572;2023-03-09T10:41:43;31.73;;;20.90;;
37545;SDS011;23389;52.484;13.572;2023-03-09T10:44:08;30.52;;;20.33;;
37545;SDS011;23389;52.484;13.572;2023-03-09T10:46:53;29.77;;;20.10;;
37545;SDS011;23389;52.484;13.572;2023-03-09T10:49:18;30.15;;;20.02;;
37545;SDS011;23389;52.484;13.572;2023-03-09T10:51:44;32.83;;;20.67;;
37545;SDS011;23389;52.484;13.572;2023-03-09T10:54:23;27.48;;;19.63;;
37545;SDS011;23389;52.484;13.572;2023-03-09T10:56:49;27.92;;;19.00;;
37545;SDS011;23389;52.484;13.572;2023-03-09T10:59:16;29.13;;;20.35;;
37545;SDS011;23389;52.484;13.572;2023-03-09T11:01:42;32.50;;;20.38;;
37545;SDS011;23389;52.484;13.572;2023-03-09T11:06:49;30.05;;;20.17;;
37545;SDS011;23389;52.484;13.572;2023-03-09T11:09:17;30.83;;;20.92;;
37545;SDS011;23389;52.484;13.572;2023-03-09T11:11:44;29.48;;;20.95;;
37545;SDS011;23389;52.484;13.572;2023-03-09T11:14:18;32.00;;;21.25;;
37545;SDS011;23389;52.484;13.572;2023-03-09T11:16:48;32.65;;;20.75;;
37545;SDS011;23389;52.484;13.572;2023-03-09T11:19:14;33.07;;;22.60;;
37545;SDS011;23389;52.484;13.572;2023-03-09T11:21:43;31.70;;;21.33;;
37545;SDS011;23389;52.484;13.572;2023-03-09T11:24:10;32.40;;;21.20;;
37545;SDS011;23389;52.484;13.572;2023-03-09T11:26:39;35.40;;;21.63;;
37545;SDS011;23389;52.484;13.572;2023-03-09T11:31:53;33.92;;;23.05;;
37545;SDS011;23389;52.484;13.572;2023-03-09T11:34:24;37.07;;;22.73;;
37545;SDS011;23389;52.484;13.572;2023-03-09T11:36:58;32.50;;;21.67;;
37545;SDS011;23389;52.484;13.572;2023-03-09T11:39:25;30.70;;;21.70;;
37545;SDS011;23389;52.484;13.572;2023-03-09T11:41:52;33.95;;;22.67;;
37545;SDS011;23389;52.484;13.572;2023-03-09T11:44:33;32.05;;;22.20;;
37545;SDS011;23389;52.484;13.572;2023-03-09T11:47:03;32.95;;;22.83;;
37545;SDS011;23389;52.484;13.572;2023-03-09T11:49:29;33.70;;;23.70;;
37545;SDS011;23389;52.484;13.572;2023-03-09T11:51:55;35.42;;;22.58;;
37545;SDS011;23389;52.484;13.572;2023-03-09T11:54:29;32.65;;;22.38;;
37545;SDS011;23389;52.484;13.572;2023-03-09T11:56:55;35.30;;;23.30;;
37545;SDS011;23389;52.484;13.572;2023-03-09T11:59:25;37.90;;;23.88;;
37545;SDS011;23389;52.484;13.572;2023-03-09T12:04:37;33.97;;;23.08;;
37545;SDS011;23389;52.484;13.572;2023-03-09T12:07:03;34.23;;;23.07;;
37545;SDS011;23389;52.484;13.572;2023-03-09T12:09:33;35.25;;;22.17;;
37545;SDS011;23389;52.484;13.572;2023-03-09T12:17:34;34.45;;;23.33;;
37545;SDS011;23389;52.484;13.572;2023-03-09T12:20:01;35.40;;;23.83;;
37545;SDS011;23389;52.484;13.572;2023-03-09T12:22:30;36.20;;;24.50;;
37545;SDS011;23389;52.484;13.572;2023-03-09T12:25:00;35.28;;;23.33;;
37545;SDS011;23389;52.484;13.572;2023-03-09T12:27:27;34.83;;;24.20;;
37545;SDS011;23389;52.484;13.572;2023-03-09T12:34:56;35.90;;;24.77;;
37545;SDS011;23389;52.484;13.572;2023-03-09T12:42:37;38.67;;;25.70;;
37545;SDS011;23389;52.484;13.572;2023-03-09T12:45:09;37.90;;;24.35;;
37545;SDS011;23389;52.484;13.572;2023-03-09T12:47:47;35.58;;;24.77;;
37545;SDS011;23389;52.484;13.572;2023-03-09T12:50:33;36.60;;;25.42;;
37545;SDS011;23389;52.484;13.572;2023-03-09T12:53:09;33.42;;;22.83;;
37545;SDS011;23389;52.484;13.572;2023-03-09T13:00:48;36.42;;;24.48;;
37545;SDS011;23389;52.484;13.572;2023-03-09T13:03:15;35.03;;;24.80;;
37545;SDS011;23389;52.484;13.572;2023-03-09T13:05:45;36.28;;;23.83;;
37545;SDS011;23389;52.484;13.572;2023-03-09T13:08:21;36.60;;;24.42;;
37545;SDS011;23389;52.484;13.572;2023-03-09T13:10:47;34.72;;;24.38;;
37545;SDS011;23389;52.484;13.572;2023-03-09T13:16:34;38.63;;;26.38;;
37545;SDS011;23389;52.484;13.572;2023-03-09T13:18:41;34.53;;;23.67;;
37545;SDS011;23389;52.484;13.572;2023-03-09T13:23:50;37.35;;;24.73;;
37545;SDS011;23389;52.484;13.572;2023-03-09T13:26:15;38.07;;;25.33;;
37545;SDS011;23389;52.484;13.572;2023-03-09T13:28:41;40.63;;;26.37;;
37545;SDS011;23389;52.484;13.572;2023-03-09T13:31:22;35.17;;;24.30;;
37545;SDS011;23389;52.484;13.572;2023-03-09T13:33:48;39.55;;;24.95;;
37545;SDS011;23389;52.484;13.572;2023-03-09T13:36:18;37.45;;;24.70;;
37545;SDS011;23389;52.484;13.572;2023-03-09T13:38:45;34.40;;;24.33;;
37545;SDS011;23389;52.484;13.572;2023-03-09T13:41:15;37.85;;;26.17;;
37545;SDS011;23389;52.484;13.572;2023-03-09T13:43:44;37.90;;;26.10;;
37545;SDS011;23389;52.484;13.572;2023-03-09T13:46:22;36.85;;;24.88;;
37545;SDS011;23389;52.484;13.572;2023-03-09T13:48:49;36.50;;;23.80;;
37545;SDS011;23389;52.484;13.572;2023-03-09T13:53:46;39.00;;;25.38;;
37545;SDS011;23389;52.484;13.572;2023-03-09T13:56:12;36.43;;;26.20;;
37545;SDS011;23389;52.484;13.572;2023-03-09T13:58:39;36.58;;;24.13;;
37545;SDS011;23389;52.484;13.572;2023-03-09T14:01:04;36.15;;;24.08;;
37545;SDS011;23389;52.484;13.572;2023-03-09T14:03:31;37.20;;;25.45;;
37545;SDS011;23389;52.484;13.572;2023-03-09T14:06:06;36.13;;;24.52;;
37545;SDS011;23389;52.484;13.572;2023-03-09T14:08:33;38.95;;;26.67;;
37545;SDS011;23389;52.484;13.572;2023-03-09T14:11:02;39.08;;;25.15;;
37545;SDS011;23389;52.484;13.572;2023-03-09T14:13:28;39.85;;;26.17;;
37545;SDS011;23389;52.484;13.572;2023-03-09T14:18:40;40.90;;;25.35;;
37545;SDS011;23389;52.484;13.572;2023-03-09T14:21:25;43.10;;;25.77;;
37545;SDS011;23389;52.484;13.572;2023-03-09T14:23:51;36.95;;;24.30;;
37545;SDS011;23389;52.484;13.572;2023-03-09T14:26:24;39.42;;;25.98;;
37545;SDS011;23389;52.484;13.572;2023-03-09T14:31:30;38.25;;;24.67;;
37545;SDS011;23389;52.484;13.572;2023-03-09T14:33:59;41.47;;;26.17;;
37545;SDS011;23389;52.484;13.572;2023-03-09T14:36:26;41.65;;;25.63;;
37545;SDS011;23389;52.484;13.572;2023-03-09T14:38:53;36.53;;;24.80;;
37545;SDS011;23389;52.484;13.572;2023-03-09T14:41:20;39.20;;;25.77;;
37545;SDS011;23389;52.484;13.572;2023-03-09T14:43:46;38.45;;;24.85;;
37545;SDS011;23389;52.484;13.572;2023-03-09T14:46:16;37.63;;;25.30;;
37545;SDS011;23389;52.484;13.572;2023-03-09T14:48:43;35.67;;;24.90;;
37545;SDS011;23389;52.484;13.572;2023-03-09T14:51:11;37.85;;;25.23;;
37545;SDS011;23389;52.484;13.572;2023-03-09T14:53:47;38.70;;;25.00;;
37545;SDS011;23389;52.484;13.572;2023-03-09T14:56:13;39.55;;;26.05;;
37545;SDS011;23389;52.484;13.572;2023-03-09T14:58:38;37.65;;;25.65;;
37545;SDS011;23389;52.484;13.572;2023-03-09T15:01:03;41.63;;;27.47;;